sensor_id;sensor_type;location;lat;lon;timestamp;temperature;humidity
7290;DHT22;63176;52.678;13.250;2023-08-06T00:00:39;17.40;99.90
7290;DHT22;63176;52.678;13.250;2023-08-06T00:03:05;17.40;99.90
7290;DHT22;63176;52.678;13.250;2023-08-06T00:05:30;17.40;99.90
7290;DHT22;63176;52.678;13.250;2023-08-06T00:08:00;17.40;99.90
7290;DHT22;63176;52.678;13.250;2023-08-06T00:10:25;17.30;99.90
7290;DHT22;63176;52.678;13.250;2023-08-06T00:12:51;17.30;99.90
7290;DHT22;63176;52.678;13.250;2023-08-06T00:15:17;17.30;99.90
7290;DHT22;63176;52.678;13.250;2023-08-06T00:17:42;17.30;99.90
7290;DHT22;63176;52.678;13.250;2023-08-06T00:20:08;17.30;99.90
7290;DHT22;63176;52.678;13.250;2023-08-06T00:22:35;17.30;99.90
7290;DHT22;63176;52.678;13.250;2023-08-06T00:25:02;17.30;99.90
7290;DHT22;63176;52.678;13.250;2023-08-06T00:27:27;17.30;99.90
7290;DHT22;63176;52.678;13.250;2023-08-06T00:29:53;17.30;99.90
7290;DHT22;63176;52.678;13.250;2023-08-06T00:32:19;17.40;99.90
7290;DHT22;63176;52.678;13.250;2023-08-06T00:34:45;17.40;99.90
7290;DHT22;63176;52.678;13.250;2023-08-06T00:37:11;17.40;99.90
7290;DHT22;63176;52.678;13.250;2023-08-06T00:39:36;17.40;99.90
7290;DHT22;63176;52.678;13.250;2023-08-06T00:42:02;17.30;99.90
7290;DHT22;63176;52.678;13.250;2023-08-06T00:44:28;17.30;99.90
7290;DHT22;63176;52.678;13.250;2023-08-06T00:46:54;17.30;99.90
7290;DHT22;63176;52.678;13.250;2023-08-06T00:49:20;17.20;99.90
7290;DHT22;63176;52.678;13.250;2023-08-06T00:51:46;17.20;99.90
7290;DHT22;63176;52.678;13.250;2023-08-06T00:54:12;17.20;99.90
7290;DHT22;63176;52.678;13.250;2023-08-06T00:56:38;17.20;99.90
7290;DHT22;63176;52.678;13.250;2023-08-06T00:59:07;17.20;99.90
7290;DHT22;63176;52.678;13.250;2023-08-06T01:01:32;17.10;99.90
7290;DHT22;63176;52.678;13.250;2023-08-06T01:03:58;17.10;99.90
7290;DHT22;63176;52.678;13.250;2023-08-06T01:06:39;17.10;99.90
7290;DHT22;63176;52.678;13.250;2023-08-06T01:14:47;17.10;99.90
7290;DHT22;63176;52.678;13.250;2023-08-06T01:17:15;17.00;99.90
7290;DHT22;63176;52.678;13.250;2023-08-06T01:19:42;17.00;99.90
7290;DHT22;63176;52.678;13.250;2023-08-06T01:22:07;17.00;99.90
7290;DHT22;63176;52.678;13.250;2023-08-06T01:24:33;17.00;99.90
7290;DHT22;63176;52.678;13.250;2023-08-06T01:27:04;17.00;99.90
7290;DHT22;63176;52.678;13.250;2023-08-06T01:29:35;17.00;99.90
7290;DHT22;63176;52.678;13.250;2023-08-06T01:32:02;16.90;99.90
7290;DHT22;63176;52.678;13.250;2023-08-06T01:34:31;16.90;99.90
7290;DHT22;63176;52.678;13.250;2023-08-06T01:36:59;17.00;99.90
7290;DHT22;63176;52.678;13.250;2023-08-06T01:39:26;17.00;99.90
7290;DHT22;63176;52.678;13.250;2023-08-06T01:41:51;17.00;99.90
7290;DHT22;63176;52.678;13.250;2023-08-06T01:44:18;17.00;99.90
7290;DHT22;63176;52.678;13.250;2023-08-06T01:46:44;16.90;99.90
7290;DHT22;63176;52.678;13.250;2023-08-06T01:49:10;17.00;99.90
7290;DHT22;63176;52.678;13.250;2023-08-06T01:51:35;17.00;99.90
7290;DHT22;63176;52.678;13.250;2023-08-06T01:54:01;17.10;99.90
7290;DHT22;63176;52.678;13.250;2023-08-06T01:56:26;17.10;99.90
7290;DHT22;63176;52.678;13.250;2023-08-06T01:58:52;17.10;99.90
7290;DHT22;63176;52.678;13.250;2023-08-06T02:01:17;17.10;99.90
7290;DHT22;63176;52.678;13.250;2023-08-06T02:03:43;17.10;99.90
7290;DHT22;63176;52.678;13.250;2023-08-06T02:06:09;17.10;99.90
7290;DHT22;63176;52.678;13.250;2023-08-06T02:08:34;17.10;99.90
7290;DHT22;63176;52.678;13.250;2023-08-06T02:11:00;17.10;99.90
7290;DHT22;63176;52.678;13.250;2023-08-06T02:13:26;17.10;99.90
7290;DHT22;63176;52.678;13.250;2023-08-06T02:15:51;17.10;99.90
7290;DHT22;63176;52.678;13.250;2023-08-06T02:18:17;17.10;99.90
7290;DHT22;63176;52.678;13.250;2023-08-06T02:20:43;17.00;99.90
7290;DHT22;63176;52.678;13.250;2023-08-06T02:23:09;17.00;99.90
7290;DHT22;63176;52.678;13.250;2023-08-06T02:25:35;17.00;99.90
7290;DHT22;63176;52.678;13.250;2023-08-06T02:28:01;17.00;99.90
7290;DHT22;63176;52.678;13.250;2023-08-06T02:30:26;17.00;99.90
7290;DHT22;63176;52.678;13.250;2023-08-06T02:32:52;17.00;99.90
7290;DHT22;63176;52.678;13.250;2023-08-06T02:35:18;17.00;99.90
7290;DHT22;63176;52.678;13.250;2023-08-06T02:37:43;17.00;99.90
7290;DHT22;63176;52.678;13.250;2023-08-06T02:40:09;17.00;99.90
7290;DHT22;63176;52.678;13.250;2023-08-06T02:42:35;17.00;99.90
7290;DHT22;63176;52.678;13.250;2023-08-06T02:45:00;17.00;99.90
7290;DHT22;63176;52.678;13.250;2023-08-06T02:47:26;17.00;99.90
7290;DHT22;63176;52.678;13.250;2023-08-06T02:49:51;17.00;99.90
7290;DHT22;63176;52.678;13.250;2023-08-06T02:52:17;17.00;99.90
7290;DHT22;63176;52.678;13.250;2023-08-06T02:54:43;17.00;99.90
7290;DHT22;63176;52.678;13.250;2023-08-06T02:57:09;17.00;99.90
7290;DHT22;63176;52.678;13.250;2023-08-06T02:59:34;17.00;99.90
7290;DHT22;63176;52.678;13.250;2023-08-06T03:02:00;17.00;99.90
7290;DHT22;63176;52.678;13.250;2023-08-06T03:04:25;17.00;99.90
7290;DHT22;63176;52.678;13.250;2023-08-06T03:06:59;17.00;99.90
7290;DHT22;63176;52.678;13.250;2023-08-06T03:09:25;17.00;99.90
7290;DHT22;63176;52.678;13.250;2023-08-06T03:11:51;16.90;99.90
7290;DHT22;63176;52.678;13.250;2023-08-06T03:14:16;16.90;99.90
7290;DHT22;63176;52.678;13.250;2023-08-06T03:16:42;16.90;99.90
7290;DHT22;63176;52.678;13.250;2023-08-06T03:19:07;16.90;99.90
7290;DHT22;63176;52.678;13.250;2023-08-06T03:21:33;16.80;99.90
7290;DHT22;63176;52.678;13.250;2023-08-06T03:23:59;16.80;99.90
7290;DHT22;63176;52.678;13.250;2023-08-06T03:26:24;16.80;99.90
7290;DHT22;63176;52.678;13.250;2023-08-06T03:28:50;16.80;99.90
7290;DHT22;63176;52.678;13.250;2023-08-06T03:31:15;16.80;99.90
7290;DHT22;63176;52.678;13.250;2023-08-06T03:33:41;16.90;99.90
7290;DHT22;63176;52.678;13.250;2023-08-06T03:36:06;16.90;99.90
7290;DHT22;63176;52.678;13.250;2023-08-06T03:38:32;16.90;99.90
7290;DHT22;63176;52.678;13.250;2023-08-06T03:40:58;16.90;99.90
7290;DHT22;63176;52.678;13.250;2023-08-06T03:43:23;16.90;99.90
7290;DHT22;63176;52.678;13.250;2023-08-06T03:45:49;16.90;99.90
7290;DHT22;63176;52.678;13.250;2023-08-06T03:48:14;17.00;99.90
7290;DHT22;63176;52.678;13.250;2023-08-06T03:50:41;17.00;99.90
7290;DHT22;63176;52.678;13.250;2023-08-06T03:53:06;17.00;99.90
7290;DHT22;63176;52.678;13.250;2023-08-06T03:55:32;17.00;99.90
7290;DHT22;63176;52.678;13.250;2023-08-06T03:57:57;17.00;99.90
7290;DHT22;63176;52.678;13.250;2023-08-06T04:00:23;17.00;99.90
7290;DHT22;63176;52.678;13.250;2023-08-06T04:02:48;17.00;99.90
7290;DHT22;63176;52.678;13.250;2023-08-06T04:05:15;17.10;99.90
7290;DHT22;63176;52.678;13.250;2023-08-06T04:07:40;17.10;99.90
7290;DHT22;63176;52.678;13.250;2023-08-06T04:10:06;17.10;99.90
7290;DHT22;63176;52.678;13.250;2023-08-06T04:12:32;17.10;99.90
7290;DHT22;63176;52.678;13.250;2023-08-06T04:15:02;17.10;99.90
7290;DHT22;63176;52.678;13.250;2023-08-06T04:17:28;17.10;99.90
7290;DHT22;63176;52.678;13.250;2023-08-06T04:19:55;17.10;99.90
7290;DHT22;63176;52.678;13.250;2023-08-06T04:22:23;17.00;99.90
7290;DHT22;63176;52.678;13.250;2023-08-06T04:24:49;17.00;99.90
7290;DHT22;63176;52.678;13.250;2023-08-06T04:27:15;17.00;99.90
7290;DHT22;63176;52.678;13.250;2023-08-06T04:29:41;17.00;99.90
7290;DHT22;63176;52.678;13.250;2023-08-06T04:32:08;17.00;99.90
7290;DHT22;63176;52.678;13.250;2023-08-06T04:34:35;17.10;99.90
7290;DHT22;63176;52.678;13.250;2023-08-06T04:37:01;17.10;99.90
7290;DHT22;63176;52.678;13.250;2023-08-06T04:39:27;17.00;99.90
7290;DHT22;63176;52.678;13.250;2023-08-06T04:41:53;17.00;99.90
7290;DHT22;63176;52.678;13.250;2023-08-06T04:44:19;17.10;99.90
7290;DHT22;63176;52.678;13.250;2023-08-06T04:46:45;17.10;99.90
7290;DHT22;63176;52.678;13.250;2023-08-06T04:49:11;17.00;99.90
7290;DHT22;63176;52.678;13.250;2023-08-06T04:51:37;17.10;99.90
7290;DHT22;63176;52.678;13.250;2023-08-06T04:54:02;17.00;99.90
7290;DHT22;63176;52.678;13.250;2023-08-06T04:56:28;17.00;99.90
7290;DHT22;63176;52.678;13.250;2023-08-06T04:59:00;17.00;99.90
7290;DHT22;63176;52.678;13.250;2023-08-06T05:01:26;17.10;99.90
7290;DHT22;63176;52.678;13.250;2023-08-06T05:03:51;17.10;99.90
7290;DHT22;63176;52.678;13.250;2023-08-06T05:06:17;17.00;99.90
7290;DHT22;63176;52.678;13.250;2023-08-06T05:08:43;17.10;99.90
7290;DHT22;63176;52.678;13.250;2023-08-06T05:11:09;17.10;99.90
7290;DHT22;63176;52.678;13.250;2023-08-06T05:13:35;17.10;99.90
7290;DHT22;63176;52.678;13.250;2023-08-06T05:16:00;17.20;99.90
7290;DHT22;63176;52.678;13.250;2023-08-06T05:18:26;17.20;99.90
7290;DHT22;63176;52.678;13.250;2023-08-06T05:20:52;17.20;99.90
7290;DHT22;63176;52.678;13.250;2023-08-06T05:23:17;17.20;99.90
7290;DHT22;63176;52.678;13.250;2023-08-06T05:25:43;17.20;99.90
7290;DHT22;63176;52.678;13.250;2023-08-06T05:28:09;17.20;99.90
7290;DHT22;63176;52.678;13.250;2023-08-06T05:30:38;17.20;99.90
7290;DHT22;63176;52.678;13.250;2023-08-06T05:33:05;17.20;99.90
7290;DHT22;63176;52.678;13.250;2023-08-06T05:35:30;17.30;99.90
7290;DHT22;63176;52.678;13.250;2023-08-06T05:37:56;17.30;99.90
7290;DHT22;63176;52.678;13.250;2023-08-06T05:40:21;17.30;99.90
7290;DHT22;63176;52.678;13.250;2023-08-06T05:42:47;17.30;99.90
7290;DHT22;63176;52.678;13.250;2023-08-06T05:45:13;17.30;99.90
7290;DHT22;63176;52.678;13.250;2023-08-06T05:47:39;17.30;99.90
7290;DHT22;63176;52.678;13.250;2023-08-06T05:50:05;17.30;99.90
7290;DHT22;63176;52.678;13.250;2023-08-06T05:52:31;17.30;99.90
7290;DHT22;63176;52.678;13.250;2023-08-06T05:54:56;17.40;99.90
7290;DHT22;63176;52.678;13.250;2023-08-06T05:57:22;17.40;99.90
7290;DHT22;63176;52.678;13.250;2023-08-06T05:59:47;17.40;99.90
7290;DHT22;63176;52.678;13.250;2023-08-06T06:02:13;17.40;99.90
7290;DHT22;63176;52.678;13.250;2023-08-06T06:04:40;17.50;99.90
7290;DHT22;63176;52.678;13.250;2023-08-06T06:07:05;17.50;99.90
7290;DHT22;63176;52.678;13.250;2023-08-06T06:09:31;17.50;99.90
7290;DHT22;63176;52.678;13.250;2023-08-06T06:11:57;17.40;99.90
7290;DHT22;63176;52.678;13.250;2023-08-06T06:14:22;17.50;99.90
7290;DHT22;63176;52.678;13.250;2023-08-06T06:16:48;17.50;99.90
7290;DHT22;63176;52.678;13.250;2023-08-06T06:19:13;17.50;99.90
7290;DHT22;63176;52.678;13.250;2023-08-06T06:21:40;17.50;99.90
7290;DHT22;63176;52.678;13.250;2023-08-06T06:24:05;17.50;99.90
7290;DHT22;63176;52.678;13.250;2023-08-06T06:26:32;17.60;99.90
7290;DHT22;63176;52.678;13.250;2023-08-06T06:28:58;17.60;99.90
7290;DHT22;63176;52.678;13.250;2023-08-06T06:31:23;17.60;99.90
7290;DHT22;63176;52.678;13.250;2023-08-06T06:33:49;17.60;99.90
7290;DHT22;63176;52.678;13.250;2023-08-06T06:36:15;17.60;99.90
7290;DHT22;63176;52.678;13.250;2023-08-06T06:38:40;17.60;99.90
7290;DHT22;63176;52.678;13.250;2023-08-06T06:41:06;17.60;99.90
7290;DHT22;63176;52.678;13.250;2023-08-06T06:43:32;17.60;99.90
7290;DHT22;63176;52.678;13.250;2023-08-06T06:46:01;17.60;99.90
7290;DHT22;63176;52.678;13.250;2023-08-06T06:48:28;17.60;99.90
7290;DHT22;63176;52.678;13.250;2023-08-06T06:50:53;17.70;99.90
7290;DHT22;63176;52.678;13.250;2023-08-06T06:53:19;17.70;99.90
7290;DHT22;63176;52.678;13.250;2023-08-06T06:55:45;17.70;99.90
7290;DHT22;63176;52.678;13.250;2023-08-06T06:58:15;17.70;99.90
7290;DHT22;63176;52.678;13.250;2023-08-06T07:00:41;17.70;99.90
7290;DHT22;63176;52.678;13.250;2023-08-06T07:03:06;17.60;99.90
7290;DHT22;63176;52.678;13.250;2023-08-06T07:05:32;17.70;99.90
7290;DHT22;63176;52.678;13.250;2023-08-06T07:07:58;17.70;99.90
7290;DHT22;63176;52.678;13.250;2023-08-06T07:10:23;17.70;99.90
7290;DHT22;63176;52.678;13.250;2023-08-06T07:12:49;17.70;99.90
7290;DHT22;63176;52.678;13.250;2023-08-06T07:15:15;17.70;99.90
7290;DHT22;63176;52.678;13.250;2023-08-06T07:17:40;17.70;99.90
7290;DHT22;63176;52.678;13.250;2023-08-06T07:20:06;17.80;99.90
7290;DHT22;63176;52.678;13.250;2023-08-06T07:22:32;17.80;99.90
7290;DHT22;63176;52.678;13.250;2023-08-06T07:24:58;17.80;99.90
7290;DHT22;63176;52.678;13.250;2023-08-06T07:27:24;17.80;99.90
7290;DHT22;63176;52.678;13.250;2023-08-06T07:29:50;17.90;99.90
7290;DHT22;63176;52.678;13.250;2023-08-06T07:32:16;17.90;99.90
7290;DHT22;63176;52.678;13.250;2023-08-06T07:34:41;18.00;99.90
7290;DHT22;63176;52.678;13.250;2023-08-06T07:37:07;18.00;99.90
7290;DHT22;63176;52.678;13.250;2023-08-06T07:39:33;18.00;99.90
7290;DHT22;63176;52.678;13.250;2023-08-06T07:41:58;18.10;99.90
7290;DHT22;63176;52.678;13.250;2023-08-06T07:44:24;18.10;99.90
7290;DHT22;63176;52.678;13.250;2023-08-06T07:46:50;18.10;99.90
7290;DHT22;63176;52.678;13.250;2023-08-06T07:49:15;18.10;99.90
7290;DHT22;63176;52.678;13.250;2023-08-06T07:51:41;18.10;99.90
7290;DHT22;63176;52.678;13.250;2023-08-06T07:54:07;18.10;99.90
7290;DHT22;63176;52.678;13.250;2023-08-06T07:56:33;18.10;99.90
7290;DHT22;63176;52.678;13.250;2023-08-06T07:58:58;18.10;99.90
7290;DHT22;63176;52.678;13.250;2023-08-06T08:01:24;18.10;99.90
7290;DHT22;63176;52.678;13.250;2023-08-06T08:03:49;18.10;99.90
7290;DHT22;63176;52.678;13.250;2023-08-06T08:06:15;18.10;99.90
7290;DHT22;63176;52.678;13.250;2023-08-06T08:08:41;18.20;99.90
7290;DHT22;63176;52.678;13.250;2023-08-06T08:11:07;18.20;99.90
7290;DHT22;63176;52.678;13.250;2023-08-06T08:13:36;18.20;99.90
7290;DHT22;63176;52.678;13.250;2023-08-06T08:16:01;18.20;99.90
7290;DHT22;63176;52.678;13.250;2023-08-06T08:18:34;18.20;99.90
7290;DHT22;63176;52.678;13.250;2023-08-06T08:20:59;18.20;99.90
7290;DHT22;63176;52.678;13.250;2023-08-06T08:23:25;18.20;99.90
7290;DHT22;63176;52.678;13.250;2023-08-06T08:25:51;18.20;99.90
7290;DHT22;63176;52.678;13.250;2023-08-06T08:28:16;18.20;99.90
7290;DHT22;63176;52.678;13.250;2023-08-06T08:30:42;18.20;99.90
7290;DHT22;63176;52.678;13.250;2023-08-06T08:33:08;18.30;99.90
7290;DHT22;63176;52.678;13.250;2023-08-06T08:35:34;18.30;99.90
7290;DHT22;63176;52.678;13.250;2023-08-06T08:37:59;18.30;99.90
7290;DHT22;63176;52.678;13.250;2023-08-06T08:40:32;18.30;99.90
7290;DHT22;63176;52.678;13.250;2023-08-06T08:42:59;18.40;99.90
7290;DHT22;63176;52.678;13.250;2023-08-06T08:45:26;18.40;99.90
7290;DHT22;63176;52.678;13.250;2023-08-06T08:47:54;18.40;99.90
7290;DHT22;63176;52.678;13.250;2023-08-06T08:50:21;18.40;99.90
7290;DHT22;63176;52.678;13.250;2023-08-06T08:52:47;18.40;99.90
7290;DHT22;63176;52.678;13.250;2023-08-06T08:55:15;18.40;99.90
7290;DHT22;63176;52.678;13.250;2023-08-06T08:57:42;18.50;99.90
7290;DHT22;63176;52.678;13.250;2023-08-06T09:00:07;18.50;99.90
7290;DHT22;63176;52.678;13.250;2023-08-06T09:02:34;18.50;99.90
7290;DHT22;63176;52.678;13.250;2023-08-06T09:05:01;18.50;99.90
7290;DHT22;63176;52.678;13.250;2023-08-06T09:07:32;18.50;99.90
7290;DHT22;63176;52.678;13.250;2023-08-06T09:10:02;18.50;99.90
7290;DHT22;63176;52.678;13.250;2023-08-06T09:12:31;18.50;99.90
7290;DHT22;63176;52.678;13.250;2023-08-06T09:14:57;18.50;99.90
7290;DHT22;63176;52.678;13.250;2023-08-06T09:17:23;18.50;99.90
7290;DHT22;63176;52.678;13.250;2023-08-06T09:19:49;18.50;99.90
7290;DHT22;63176;52.678;13.250;2023-08-06T09:22:15;18.50;99.90
7290;DHT22;63176;52.678;13.250;2023-08-06T09:24:41;18.50;99.90
7290;DHT22;63176;52.678;13.250;2023-08-06T09:27:11;18.50;99.90
7290;DHT22;63176;52.678;13.250;2023-08-06T09:29:42;18.50;99.90
7290;DHT22;63176;52.678;13.250;2023-08-06T09:32:08;18.50;99.90
7290;DHT22;63176;52.678;13.250;2023-08-06T09:34:34;18.50;99.90
7290;DHT22;63176;52.678;13.250;2023-08-06T09:36:59;18.50;99.90
7290;DHT22;63176;52.678;13.250;2023-08-06T09:39:29;18.50;99.90
7290;DHT22;63176;52.678;13.250;2023-08-06T09:41:57;18.50;99.90
7290;DHT22;63176;52.678;13.250;2023-08-06T09:44:24;18.50;99.90
7290;DHT22;63176;52.678;13.250;2023-08-06T09:46:55;18.50;99.90
7290;DHT22;63176;52.678;13.250;2023-08-06T09:49:41;18.60;99.90
7290;DHT22;63176;52.678;13.250;2023-08-06T09:52:12;18.50;99.90
7290;DHT22;63176;52.678;13.250;2023-08-06T09:54:39;18.60;99.90
7290;DHT22;63176;52.678;13.250;2023-08-06T09:57:05;18.60;99.90
7290;DHT22;63176;52.678;13.250;2023-08-06T09:59:32;18.60;99.90
7290;DHT22;63176;52.678;13.250;2023-08-06T10:01:58;18.60;99.90
7290;DHT22;63176;52.678;13.250;2023-08-06T10:04:24;18.60;99.90
7290;DHT22;63176;52.678;13.250;2023-08-06T10:06:50;18.60;99.90
7290;DHT22;63176;52.678;13.250;2023-08-06T10:09:16;18.60;99.90
7290;DHT22;63176;52.678;13.250;2023-08-06T10:11:43;18.70;99.90
7290;DHT22;63176;52.678;13.250;2023-08-06T10:14:18;18.70;99.90
7290;DHT22;63176;52.678;13.250;2023-08-06T10:16:45;18.70;99.90
7290;DHT22;63176;52.678;13.250;2023-08-06T10:19:12;18.80;99.90
7290;DHT22;63176;52.678;13.250;2023-08-06T10:21:39;18.80;99.90
7290;DHT22;63176;52.678;13.250;2023-08-06T10:24:08;18.80;99.90
7290;DHT22;63176;52.678;13.250;2023-08-06T10:26:37;18.80;99.90
7290;DHT22;63176;52.678;13.250;2023-08-06T10:29:35;18.80;99.90
7290;DHT22;63176;52.678;13.250;2023-08-06T10:32:01;18.80;99.90
7290;DHT22;63176;52.678;13.250;2023-08-06T10:34:53;18.90;99.90
7290;DHT22;63176;52.678;13.250;2023-08-06T10:37:20;18.90;99.90
7290;DHT22;63176;52.678;13.250;2023-08-06T10:39:51;18.90;99.90
7290;DHT22;63176;52.678;13.250;2023-08-06T10:42:27;18.90;99.90
7290;DHT22;63176;52.678;13.250;2023-08-06T10:45:13;18.90;99.90
7290;DHT22;63176;52.678;13.250;2023-08-06T10:47:41;19.00;99.90
7290;DHT22;63176;52.678;13.250;2023-08-06T10:50:16;19.00;99.90
7290;DHT22;63176;52.678;13.250;2023-08-06T10:52:46;19.00;99.90
7290;DHT22;63176;52.678;13.250;2023-08-06T10:55:22;19.00;99.90
7290;DHT22;63176;52.678;13.250;2023-08-06T10:57:49;18.90;99.90
7290;DHT22;63176;52.678;13.250;2023-08-06T11:00:15;18.90;99.90
7290;DHT22;63176;52.678;13.250;2023-08-06T11:02:41;18.90;99.90
7290;DHT22;63176;52.678;13.250;2023-08-06T11:05:07;18.90;99.90
7290;DHT22;63176;52.678;13.250;2023-08-06T11:07:37;19.00;99.90
7290;DHT22;63176;52.678;13.250;2023-08-06T11:10:07;18.90;99.90
7290;DHT22;63176;52.678;13.250;2023-08-06T11:12:34;18.90;99.90
7290;DHT22;63176;52.678;13.250;2023-08-06T11:15:01;18.90;99.90
7290;DHT22;63176;52.678;13.250;2023-08-06T11:17:30;18.80;99.90
7290;DHT22;63176;52.678;13.250;2023-08-06T11:19:59;18.80;99.90
7290;DHT22;63176;52.678;13.250;2023-08-06T11:22:26;18.80;99.90
7290;DHT22;63176;52.678;13.250;2023-08-06T11:24:53;18.80;99.90
7290;DHT22;63176;52.678;13.250;2023-08-06T11:27:18;18.70;99.90
7290;DHT22;63176;52.678;13.250;2023-08-06T11:29:44;18.70;99.90
7290;DHT22;63176;52.678;13.250;2023-08-06T11:32:11;18.70;99.90
7290;DHT22;63176;52.678;13.250;2023-08-06T11:34:38;18.60;99.90
7290;DHT22;63176;52.678;13.250;2023-08-06T11:37:05;18.60;99.90
7290;DHT22;63176;52.678;13.250;2023-08-06T11:39:38;18.70;99.90
7290;DHT22;63176;52.678;13.250;2023-08-06T11:42:05;18.70;99.90
7290;DHT22;63176;52.678;13.250;2023-08-06T11:44:32;18.80;99.90
7290;DHT22;63176;52.678;13.250;2023-08-06T11:47:05;18.80;99.90
7290;DHT22;63176;52.678;13.250;2023-08-06T11:52:23;18.90;99.90
7290;DHT22;63176;52.678;13.250;2023-08-06T11:55:09;18.80;99.90
7290;DHT22;63176;52.678;13.250;2023-08-06T11:57:43;18.90;99.90
7290;DHT22;63176;52.678;13.250;2023-08-06T12:00:11;18.90;99.90
7290;DHT22;63176;52.678;13.250;2023-08-06T12:02:40;18.90;99.90
7290;DHT22;63176;52.678;13.250;2023-08-06T12:05:13;18.90;99.90
7290;DHT22;63176;52.678;13.250;2023-08-06T12:07:42;18.90;99.90
7290;DHT22;63176;52.678;13.250;2023-08-06T12:10:08;18.90;99.90
7290;DHT22;63176;52.678;13.250;2023-08-06T12:12:37;18.90;99.90
7290;DHT22;63176;52.678;13.250;2023-08-06T12:15:05;19.00;99.90
7290;DHT22;63176;52.678;13.250;2023-08-06T12:17:32;18.90;99.90
7290;DHT22;63176;52.678;13.250;2023-08-06T12:19:58;18.90;99.90
7290;DHT22;63176;52.678;13.250;2023-08-06T12:22:24;19.00;99.90
7290;DHT22;63176;52.678;13.250;2023-08-06T12:24:49;19.00;99.90
7290;DHT22;63176;52.678;13.250;2023-08-06T12:27:15;19.00;99.90
7290;DHT22;63176;52.678;13.250;2023-08-06T12:29:45;19.00;99.90
7290;DHT22;63176;52.678;13.250;2023-08-06T12:32:12;19.00;99.90
7290;DHT22;63176;52.678;13.250;2023-08-06T12:34:41;19.00;99.90
7290;DHT22;63176;52.678;13.250;2023-08-06T12:37:09;19.00;99.90
7290;DHT22;63176;52.678;13.250;2023-08-06T12:39:35;19.00;99.90
7290;DHT22;63176;52.678;13.250;2023-08-06T12:42:02;19.00;99.90
7290;DHT22;63176;52.678;13.250;2023-08-06T12:44:28;19.00;99.90
7290;DHT22;63176;52.678;13.250;2023-08-06T12:46:54;19.00;99.90
7290;DHT22;63176;52.678;13.250;2023-08-06T12:49:20;19.00;99.90
7290;DHT22;63176;52.678;13.250;2023-08-06T12:51:47;19.00;99.90
7290;DHT22;63176;52.678;13.250;2023-08-06T12:54:13;19.00;99.90
7290;DHT22;63176;52.678;13.250;2023-08-06T12:56:39;19.00;99.90
7290;DHT22;63176;52.678;13.250;2023-08-06T12:59:04;19.00;99.90
7290;DHT22;63176;52.678;13.250;2023-08-06T13:01:30;18.90;99.90
7290;DHT22;63176;52.678;13.250;2023-08-06T13:03:56;18.90;99.90
7290;DHT22;63176;52.678;13.250;2023-08-06T13:06:21;18.90;99.90
7290;DHT22;63176;52.678;13.250;2023-08-06T13:08:47;18.90;99.90
7290;DHT22;63176;52.678;13.250;2023-08-06T13:11:13;18.80;99.90
7290;DHT22;63176;52.678;13.250;2023-08-06T13:13:38;18.80;99.90
7290;DHT22;63176;52.678;13.250;2023-08-06T13:16:04;18.80;99.90
7290;DHT22;63176;52.678;13.250;2023-08-06T13:18:30;18.80;99.90
7290;DHT22;63176;52.678;13.250;2023-08-06T13:20:56;18.80;99.90
7290;DHT22;63176;52.678;13.250;2023-08-06T13:23:22;18.70;99.90
7290;DHT22;63176;52.678;13.250;2023-08-06T13:25:48;18.70;99.90
7290;DHT22;63176;52.678;13.250;2023-08-06T13:28:13;18.60;99.90
7290;DHT22;63176;52.678;13.250;2023-08-06T13:30:39;18.70;99.90
7290;DHT22;63176;52.678;13.250;2023-08-06T13:33:08;18.70;99.90
7290;DHT22;63176;52.678;13.250;2023-08-06T13:35:34;18.70;99.90
7290;DHT22;63176;52.678;13.250;2023-08-06T13:38:00;18.70;99.90
7290;DHT22;63176;52.678;13.250;2023-08-06T13:40:28;18.70;99.90
7290;DHT22;63176;52.678;13.250;2023-08-06T13:42:55;18.70;99.90
7290;DHT22;63176;52.678;13.250;2023-08-06T13:45:21;18.70;99.90
7290;DHT22;63176;52.678;13.250;2023-08-06T13:47:47;18.70;99.90
7290;DHT22;63176;52.678;13.250;2023-08-06T13:50:13;18.70;99.90
7290;DHT22;63176;52.678;13.250;2023-08-06T13:52:39;18.70;99.90
7290;DHT22;63176;52.678;13.250;2023-08-06T13:55:05;18.70;99.90
7290;DHT22;63176;52.678;13.250;2023-08-06T13:57:31;18.70;99.90
7290;DHT22;63176;52.678;13.250;2023-08-06T13:59:57;18.60;99.90
7290;DHT22;63176;52.678;13.250;2023-08-06T14:02:23;18.60;99.90
7290;DHT22;63176;52.678;13.250;2023-08-06T14:04:48;18.60;99.90
7290;DHT22;63176;52.678;13.250;2023-08-06T14:07:14;18.50;99.90
7290;DHT22;63176;52.678;13.250;2023-08-06T14:09:40;18.50;99.90
7290;DHT22;63176;52.678;13.250;2023-08-06T14:12:07;18.50;99.90
7290;DHT22;63176;52.678;13.250;2023-08-06T14:14:33;18.50;99.90
7290;DHT22;63176;52.678;13.250;2023-08-06T14:16:59;18.50;99.90
7290;DHT22;63176;52.678;13.250;2023-08-06T14:19:24;18.40;99.90
7290;DHT22;63176;52.678;13.250;2023-08-06T14:21:50;18.40;99.90
7290;DHT22;63176;52.678;13.250;2023-08-06T14:24:16;18.40;99.90
7290;DHT22;63176;52.678;13.250;2023-08-06T14:26:41;18.40;99.90
7290;DHT22;63176;52.678;13.250;2023-08-06T14:29:07;18.40;99.90
7290;DHT22;63176;52.678;13.250;2023-08-06T14:31:33;18.40;99.90
7290;DHT22;63176;52.678;13.250;2023-08-06T14:33:58;18.40;99.90
7290;DHT22;63176;52.678;13.250;2023-08-06T14:36:25;18.40;99.90
7290;DHT22;63176;52.678;13.250;2023-08-06T14:38:51;18.40;99.90
7290;DHT22;63176;52.678;13.250;2023-08-06T14:41:16;18.40;99.90
7290;DHT22;63176;52.678;13.250;2023-08-06T14:43:42;18.40;99.90
7290;DHT22;63176;52.678;13.250;2023-08-06T14:46:08;18.40;99.90
7290;DHT22;63176;52.678;13.250;2023-08-06T14:48:33;18.40;99.90
7290;DHT22;63176;52.678;13.250;2023-08-06T14:50:59;18.40;99.90
7290;DHT22;63176;52.678;13.250;2023-08-06T14:53:25;18.30;99.90
7290;DHT22;63176;52.678;13.250;2023-08-06T14:55:50;18.30;99.90
7290;DHT22;63176;52.678;13.250;2023-08-06T14:58:16;18.30;99.90
7290;DHT22;63176;52.678;13.250;2023-08-06T15:00:42;18.30;99.90
7290;DHT22;63176;52.678;13.250;2023-08-06T15:03:07;18.30;99.90
7290;DHT22;63176;52.678;13.250;2023-08-06T15:05:33;18.30;99.90
7290;DHT22;63176;52.678;13.250;2023-08-06T15:07:59;18.30;99.90
7290;DHT22;63176;52.678;13.250;2023-08-06T15:10:25;18.30;99.90
7290;DHT22;63176;52.678;13.250;2023-08-06T15:12:51;18.30;99.90
7290;DHT22;63176;52.678;13.250;2023-08-06T15:15:16;18.30;99.90
7290;DHT22;63176;52.678;13.250;2023-08-06T15:17:42;18.30;99.90
7290;DHT22;63176;52.678;13.250;2023-08-06T15:20:08;18.30;99.90
7290;DHT22;63176;52.678;13.250;2023-08-06T15:22:34;18.20;99.90
7290;DHT22;63176;52.678;13.250;2023-08-06T15:25:00;18.20;99.90
7290;DHT22;63176;52.678;13.250;2023-08-06T15:27:27;18.20;99.90
7290;DHT22;63176;52.678;13.250;2023-08-06T15:29:53;18.20;99.90
7290;DHT22;63176;52.678;13.250;2023-08-06T15:32:18;18.30;99.90
7290;DHT22;63176;52.678;13.250;2023-08-06T15:34:44;18.30;99.90